Time;durP1;ratioP1;P1;durP2;ratioP2;P2;SDS_P1;SDS_P2;PMS_P1;PMS_P2;Temp;Humidity;BMP_temperature;BMP_pressure;BME280_temperature;BME280_humidity;BME280_pressure;Samples;Min_cycle;Max_cycle;Signal;HPM_P1;HPM_P2
2023/05/28 00:01:50;;;;;;;0.20;0.20;;;10.50;99.90;;;;;;5051789;28;20632;-89
2023/05/28 00:04:16;;;;;;;0.20;0.20;;;10.70;99.90;;;;;;5053400;28;20194;-89
2023/05/28 00:06:41;;;;;;;0.20;0.20;;;10.60;99.90;;;;;;5065509;28;20188;-88
2023/05/28 00:09:07;;;;;;;0.20;0.20;;;10.50;99.90;;;;;;5062253;28;20437;-89
2023/05/28 00:11:33;;;;;;;0.20;0.20;;;10.30;99.90;;;;;;5066226;28;20263;-88
2023/05/28 00:13:59;;;;;;;0.20;0.20;;;10.20;99.90;;;;;;5070695;28;20416;-89
2023/05/28 00:16:25;;;;;;;0.20;0.20;;;10.20;99.90;;;;;;5067617;28;20200;-88
2023/05/28 00:18:50;;;;;;;0.20;0.20;;;10.20;99.90;;;;;;5068223;28;20201;-90
2023/05/28 00:21:16;;;;;;;0.20;0.20;;;10.40;99.90;;;;;;5070754;28;20474;-89
2023/05/28 00:23:41;;;;;;;0.20;0.20;;;10.20;99.90;;;;;;5069266;28;20732;-88
2023/05/28 00:26:07;;;;;;;0.20;0.20;;;10.10;99.90;;;;;;5063710;28;20198;-88
2023/05/28 00:28:32;;;;;;;0.20;0.20;;;10.00;99.90;;;;;;5065254;28;20189;-88
2023/05/28 00:30:58;;;;;;;0.20;0.20;;;10.00;99.90;;;;;;5073192;28;20217;-88
2023/05/28 00:33:23;;;;;;;0.20;0.20;;;10.00;99.90;;;;;;5070880;28;20295;-89
2023/05/28 00:35:54;;;;;;;0.20;0.20;;;10.00;99.90;;;;;;5065005;28;20194;-88
2023/05/28 00:38:20;;;;;;;0.20;0.20;;;9.80;99.90;;;;;;5070728;28;20193;-88
2023/05/28 00:40:45;;;;;;;0.20;0.20;;;9.80;99.90;;;;;;5051048;28;20452;-88
2023/05/28 00:43:11;;;;;;;0.20;0.20;;;9.70;99.90;;;;;;5074684;28;20190;-88
2023/05/28 00:45:37;;;;;;;0.20;0.20;;;9.60;99.90;;;;;;5069236;28;20182;-89
2023/05/28 00:48:02;;;;;;;0.20;0.20;;;9.70;99.90;;;;;;5067521;28;20189;-88
2023/05/28 00:50:28;;;;;;;0.20;0.20;;;9.70;99.90;;;;;;5073491;28;20371;-89
2023/05/28 00:52:55;;;;;;;0.20;0.20;;;9.80;99.90;;;;;;5056770;28;20173;-89
2023/05/28 00:55:21;;;;;;;0.20;0.20;;;9.70;99.90;;;;;;5071521;28;20791;-87
2023/05/28 00:57:48;;;;;;;0.20;0.20;;;9.60;99.90;;;;;;5063650;28;20479;-88
2023/05/28 01:00:14;;;;;;;0.20;0.20;;;9.60;99.90;;;;;;5072626;28;20432;-89
2023/05/28 01:02:40;;;;;;;0.20;0.20;;;9.60;99.90;;;;;;5073267;28;20872;-89
2023/05/28 01:05:05;;;;;;;0.20;0.20;;;9.60;99.90;;;;;;5067613;28;20423;-88
2023/05/28 01:07:32;;;;;;;0.20;0.20;;;9.50;99.90;;;;;;5073146;28;20448;-88
2023/05/28 01:09:58;;;;;;;0.30;0.30;;;9.50;99.90;;;;;;5053171;28;20233;-88
2023/05/28 01:12:25;;;;;;;0.20;0.20;;;9.60;99.90;;;;;;5074072;28;20420;-88
2023/05/28 01:14:52;;;;;;;0.20;0.20;;;9.50;99.90;;;;;;5087085;28;20220;-89
2023/05/28 01:17:18;;;;;;;0.20;0.20;;;9.40;99.90;;;;;;5073304;28;20464;-89
2023/05/28 01:19:46;;;;;;;0.20;0.20;;;9.40;99.90;;;;;;5073505;28;20477;-89
2023/05/28 01:22:16;;;;;;;0.20;0.20;;;9.40;99.90;;;;;;5087868;28;20443;-89
2023/05/28 01:24:44;;;;;;;0.20;0.20;;;9.30;99.90;;;;;;5071623;28;20468;-88
2023/05/28 01:27:11;;;;;;;0.20;0.20;;;9.30;99.90;;;;;;5072170;28;20452;-88
2023/05/28 01:29:36;;;;;;;0.30;0.30;;;9.30;99.90;;;;;;5053779;28;20436;-88
2023/05/28 01:32:02;;;;;;;0.20;0.20;;;9.20;99.90;;;;;;5073170;28;20477;-89
2023/05/28 01:34:28;;;;;;;0.20;0.20;;;9.30;99.90;;;;;;5074191;28;20196;-88
2023/05/28 01:37:07;;;;;;;0.20;0.20;;;9.30;99.90;;;;;;5072287;28;20448;-88
2023/05/28 01:39:39;;;;;;;0.20;0.20;;;9.20;99.90;;;;;;5075193;28;20214;-89
2023/05/28 01:42:06;;;;;;;0.20;0.20;;;9.20;99.90;;;;;;5073020;28;20799;-88
2023/05/28 01:44:33;;;;;;;0.30;0.30;;;9.20;99.90;;;;;;5054169;28;20459;-89
2023/05/28 01:46:59;;;;;;;0.20;0.20;;;9.20;99.90;;;;;;5072741;28;20444;-88
2023/05/28 01:49:24;;;;;;;0.20;0.20;;;9.20;99.90;;;;;;5072940;28;20447;-86
2023/05/28 01:51:51;;;;;;;0.20;0.20;;;9.20;99.90;;;;;;5061163;28;20485;-87
2023/05/28 01:54:17;;;;;;;0.20;0.20;;;9.20;99.90;;;;;;5041590;28;20182;-88
2023/05/28 01:56:42;;;;;;;0.20;0.20;;;9.30;99.90;;;;;;5069742;28;20460;-87
2023/05/28 01:59:08;;;;;;;0.20;0.20;;;9.20;99.90;;;;;;5073911;28;20226;-88
2023/05/28 02:01:35;;;;;;;0.20;0.20;;;9.30;99.90;;;;;;5078411;28;20315;-88
2023/05/28 02:04:01;;;;;;;0.20;0.20;;;9.30;99.90;;;;;;5071591;28;20527;-88
2023/05/28 02:06:29;;;;;;;0.20;0.20;;;9.30;99.90;;;;;;5073122;28;20447;-88
2023/05/28 02:08:55;;;;;;;0.20;0.20;;;9.40;99.90;;;;;;5075337;28;20593;-88
2023/05/28 02:11:21;;;;;;;0.20;0.20;;;9.40;99.90;;;;;;5054558;28;20559;-88
2023/05/28 02:13:48;;;;;;;0.20;0.20;;;9.50;99.90;;;;;;5085017;28;20192;-88
2023/05/28 02:16:17;;;;;;;0.20;0.20;;;9.50;99.90;;;;;;5070903;28;20444;-88
2023/05/28 02:18:46;;;;;;;0.20;0.20;;;9.50;99.90;;;;;;5063111;28;21279;-88
2023/05/28 02:21:12;;;;;;;0.30;0.30;;;9.40;99.90;;;;;;5064808;28;20452;-88
2023/05/28 02:23:42;;;;;;;0.20;0.20;;;9.40;99.90;;;;;;5068924;28;20447;-88
2023/05/28 02:26:07;;;;;;;0.20;0.20;;;9.50;99.90;;;;;;5072857;28;20466;-88
2023/05/28 02:28:33;;;;;;;0.20;0.20;;;9.40;99.90;;;;;;5092995;28;20415;-88
2023/05/28 02:30:58;;;;;;;0.20;0.20;;;9.60;99.90;;;;;;5080599;28;20703;-89
2023/05/28 02:33:24;;;;;;;0.20;0.20;;;9.60;99.90;;;;;;5070639;28;20285;-89
2023/05/28 02:35:49;;;;;;;0.23;0.23;;;9.70;99.90;;;;;;5073052;28;20185;-87
2023/05/28 02:38:15;;;;;;;0.20;0.20;;;9.70;99.90;;;;;;5071711;28;20166;-89
2023/05/28 02:40:41;;;;;;;0.20;0.20;;;9.60;99.90;;;;;;5072783;28;20174;-88
2023/05/28 02:43:06;;;;;;;0.20;0.20;;;9.50;99.90;;;;;;5071899;28;20176;-89
2023/05/28 02:45:32;;;;;;;0.20;0.20;;;9.50;99.90;;;;;;5074824;28;20255;-89
2023/05/28 02:47:57;;;;;;;0.20;0.20;;;9.70;99.90;;;;;;5054937;28;20173;-88
2023/05/28 02:50:23;;;;;;;0.20;0.20;;;9.80;99.90;;;;;;5072992;28;20229;-88
2023/05/28 02:52:48;;;;;;;0.20;0.20;;;9.80;99.90;;;;;;5068088;28;20238;-88
2023/05/28 02:55:14;;;;;;;0.20;0.20;;;9.80;99.90;;;;;;5086315;28;20181;-89
2023/05/28 02:57:40;;;;;;;0.20;0.20;;;9.80;99.90;;;;;;5054259;28;20249;-88
2023/05/28 03:00:09;;;;;;;0.20;0.20;;;9.80;99.90;;;;;;5070822;28;20213;-88
2023/05/28 03:02:34;;;;;;;0.20;0.20;;;9.80;99.90;;;;;;5072015;28;20170;-88
2023/05/28 03:05:02;;;;;;;0.20;0.20;;;9.80;99.90;;;;;;5072381;28;20473;-88
2023/05/28 03:07:31;;;;;;;0.20;0.20;;;10.00;99.90;;;;;;5056704;28;20232;-88
2023/05/28 03:09:57;;;;;;;0.20;0.20;;;10.00;99.90;;;;;;5072628;28;20444;-88
2023/05/28 03:12:23;;;;;;;0.20;0.20;;;10.10;99.90;;;;;;5072263;28;20424;-87
2023/05/28 03:14:49;;;;;;;0.20;0.20;;;10.10;99.90;;;;;;5071826;28;20444;-88
2023/05/28 03:17:15;;;;;;;0.20;0.20;;;10.00;99.90;;;;;;5082003;28;20958;-88
2023/05/28 03:19:40;;;;;;;0.20;0.20;;;9.90;99.90;;;;;;5074806;28;20439;-88
2023/05/28 03:22:06;;;;;;;0.20;0.20;;;9.90;99.90;;;;;;5078521;28;20198;-87
2023/05/28 03:24:31;;;;;;;0.20;0.20;;;9.90;99.90;;;;;;5073265;28;20190;-88
2023/05/28 03:27:00;;;;;;;0.20;0.20;;;9.90;99.90;;;;;;5071125;28;20174;-88
2023/05/28 03:29:26;;;;;;;0.20;0.20;;;9.90;99.90;;;;;;5053404;28;20225;-88
2023/05/28 03:31:51;;;;;;;0.20;0.20;;;9.90;99.90;;;;;;5071347;28;20529;-88
2023/05/28 03:34:17;;;;;;;0.20;0.20;;;9.90;99.90;;;;;;5076406;28;20270;-88
2023/05/28 03:36:43;;;;;;;0.20;0.20;;;9.90;99.90;;;;;;5062912;28;20195;-88
2023/05/28 03:39:10;;;;;;;0.20;0.20;;;10.00;99.90;;;;;;5063440;28;20207;-88
2023/05/28 03:41:36;;;;;;;0.20;0.20;;;9.90;99.90;;;;;;5065124;28;20258;-88
2023/05/28 03:44:02;;;;;;;0.20;0.20;;;9.80;99.90;;;;;;5076554;28;20972;-89
2023/05/28 03:46:27;;;;;;;0.20;0.20;;;9.90;99.90;;;;;;5077057;28;20463;-88
2023/05/28 03:48:53;;;;;;;0.20;0.20;;;10.00;99.90;;;;;;5052020;28;20273;-88
2023/05/28 03:51:18;;;;;;;0.20;0.20;;;9.90;99.90;;;;;;5071184;28;20257;-87
2023/05/28 03:53:44;;;;;;;0.20;0.20;;;9.90;99.90;;;;;;5050957;28;20256;-87
2023/05/28 03:56:09;;;;;;;0.20;0.20;;;10.00;99.90;;;;;;5073498;28;20186;-88
2023/05/28 03:58:35;;;;;;;0.20;0.20;;;9.90;99.90;;;;;;5068316;28;20250;-87
2023/05/28 04:01:00;;;;;;;0.20;0.20;;;10.00;99.90;;;;;;5072722;28;20268;-88
2023/05/28 04:03:26;;;;;;;0.20;0.20;;;10.00;99.90;;;;;;5078440;28;20197;-87
2023/05/28 04:05:52;;;;;;;0.20;0.20;;;10.00;99.90;;;;;;5056271;28;20187;-88
2023/05/28 04:08:18;;;;;;;0.20;0.20;;;10.00;99.90;;;;;;5053899;28;20267;-87
2023/05/28 04:10:43;;;;;;;0.20;0.20;;;10.00;99.90;;;;;;5063377;28;20572;-87
2023/05/28 04:13:10;;;;;;;0.20;0.20;;;10.00;99.90;;;;;;5068406;28;20175;-88
2023/05/28 04:15:35;;;;;;;0.20;0.20;;;10.00;99.90;;;;;;5072454;28;20529;-87
2023/05/28 04:18:01;;;;;;;0.20;0.20;;;10.10;99.90;;;;;;5088707;28;20487;-88
2023/05/28 04:20:27;;;;;;;0.20;0.20;;;10.00;99.90;;;;;;5077900;28;20243;-87
2023/05/28 04:22:52;;;;;;;0.20;0.20;;;10.10;99.90;;;;;;5069957;28;20650;-88
2023/05/28 04:25:21;;;;;;;0.20;0.20;;;10.20;99.90;;;;;;5068842;28;20459;-88
2023/05/28 04:27:47;;;;;;;0.20;0.20;;;10.20;99.90;;;;;;5064325;28;20186;-88
2023/05/28 04:30:12;;;;;;;0.20;0.20;;;10.30;99.90;;;;;;5073967;28;20819;-88
2023/05/28 04:32:39;;;;;;;0.20;0.20;;;10.30;99.90;;;;;;5069270;28;20267;-88
2023/05/28 04:35:06;;;;;;;0.20;0.20;;;10.40;99.90;;;;;;5080380;28;20176;-88
2023/05/28 04:37:33;;;;;;;0.20;0.20;;;10.50;99.90;;;;;;5057583;28;20444;-89
2023/05/28 04:39:59;;;;;;;0.20;0.20;;;10.60;99.90;;;;;;5070056;28;20436;-88
2023/05/28 04:42:24;;;;;;;0.20;0.20;;;10.70;99.90;;;;;;5049863;28;20452;-88
2023/05/28 04:44:53;;;;;;;0.20;0.20;;;10.80;99.90;;;;;;5085011;28;20192;-88
2023/05/28 04:47:19;;;;;;;0.20;0.20;;;10.70;99.90;;;;;;5070769;28;20189;-88
2023/05/28 04:49:44;;;;;;;0.20;0.20;;;10.90;99.90;;;;;;5075091;28;20438;-88
2023/05/28 04:52:10;;;;;;;0.20;0.20;;;11.00;99.90;;;;;;5070852;28;20212;-88
2023/05/28 04:54:36;;;;;;;0.20;0.20;;;11.00;99.90;;;;;;5074054;28;20220;-89
2023/05/28 04:57:02;;;;;;;0.20;0.20;;;11.10;99.90;;;;;;5065726;28;24418;-88
2023/05/28 04:59:28;;;;;;;0.20;0.20;;;11.20;99.90;;;;;;5067510;28;20766;-88
2023/05/28 05:01:53;;;;;;;0.20;0.20;;;11.30;99.90;;;;;;5067397;28;20531;-89
2023/05/28 05:04:19;;;;;;;0.10;0.10;;;11.40;99.90;;;;;;5067429;28;20263;-88
2023/05/28 05:06:44;;;;;;;0.20;0.20;;;11.40;99.90;;;;;;5041432;28;20304;-88
2023/05/28 05:09:10;;;;;;;0.20;0.20;;;11.50;99.90;;;;;;5065837;28;20182;-88
2023/05/28 05:11:35;;;;;;;0.20;0.20;;;11.60;99.90;;;;;;5064646;28;20780;-88
2023/05/28 05:14:01;;;;;;;0.20;0.20;;;11.70;99.90;;;;;;5049518;28;20197;-88
2023/05/28 05:16:26;;;;;;;0.20;0.20;;;11.70;99.90;;;;;;5057113;28;20198;-88
2023/05/28 05:18:52;;;;;;;0.20;0.20;;;11.70;99.90;;;;;;5069847;28;20277;-88
2023/05/28 05:21:18;;;;;;;0.10;0.10;;;11.80;99.90;;;;;;5069248;28;20225;-88
2023/05/28 05:23:43;;;;;;;0.20;0.20;;;11.80;99.90;;;;;;5073505;28;20657;-88
2023/05/28 05:26:12;;;;;;;0.20;0.20;;;11.80;99.90;;;;;;5073388;28;20522;-88
2023/05/28 05:28:38;;;;;;;0.20;0.20;;;11.90;99.90;;;;;;5064684;28;20190;-87
2023/05/28 05:31:04;;;;;;;0.20;0.20;;;11.90;99.90;;;;;;5071639;28;20507;-88
2023/05/28 05:33:30;;;;;;;0.20;0.20;;;11.80;99.90;;;;;;5066567;28;20475;-88
2023/05/28 05:35:55;;;;;;;0.20;0.20;;;11.70;99.90;;;;;;5070802;28;20645;-88
2023/05/28 05:38:20;;;;;;;0.20;0.20;;;11.80;99.90;;;;;;5072194;28;20200;-88
2023/05/28 05:40:46;;;;;;;0.10;0.10;;;11.80;99.90;;;;;;5092083;28;20193;-88
2023/05/28 05:43:12;;;;;;;0.20;0.20;;;11.80;99.90;;;;;;5067375;28;20550;-87
2023/05/28 05:45:37;;;;;;;0.10;0.10;;;11.90;99.90;;;;;;5058604;28;20174;-88
2023/05/28 05:48:03;;;;;;;0.20;0.20;;;11.90;99.90;;;;;;5063938;28;20178;-88
2023/05/28 05:50:29;;;;;;;0.17;0.17;;;12.00;99.90;;;;;;5065273;28;20267;-89
2023/05/28 05:52:54;;;;;;;0.10;0.10;;;12.10;99.90;;;;;;5068154;28;20196;-89
2023/05/28 05:55:20;;;;;;;0.20;0.20;;;12.10;99.90;;;;;;5052422;28;20214;-89
2023/05/28 05:57:46;;;;;;;0.20;0.20;;;12.10;99.90;;;;;;5067999;28;20650;-86
2023/05/28 06:00:13;;;;;;;0.10;0.10;;;12.10;99.90;;;;;;5072151;28;20197;-86
2023/05/28 06:02:38;;;;;;;0.10;0.10;;;12.10;99.90;;;;;;5070523;28;20440;-88
2023/05/28 06:05:05;;;;;;;0.20;0.20;;;12.20;99.90;;;;;;5082836;28;20435;-88
2023/05/28 06:07:31;;;;;;;0.10;0.10;;;12.20;99.90;;;;;;5071696;28;20186;-87
2023/05/28 06:09:56;;;;;;;0.20;0.20;;;12.30;99.90;;;;;;5073343;28;20519;-88
2023/05/28 06:12:22;;;;;;;0.20;0.20;;;12.50;99.90;;;;;;5068022;28;20226;-88
2023/05/28 06:14:47;;;;;;;0.10;0.10;;;12.60;99.90;;;;;;5093533;28;20590;-87
2023/05/28 06:17:13;;;;;;;0.10;0.10;;;12.70;99.90;;;;;;5076425;28;20189;-87
2023/05/28 06:19:39;;;;;;;0.10;0.10;;;12.80;99.90;;;;;;5070846;28;20288;-88
2023/05/28 06:22:04;;;;;;;0.10;0.10;;;13.00;99.90;;;;;;5071630;28;20197;-88
2023/05/28 06:24:30;;;;;;;0.10;0.10;;;13.10;99.90;;;;;;5071600;28;20319;-86
2023/05/28 06:26:57;;;;;;;0.10;0.10;;;13.30;99.90;;;;;;5069894;28;20178;-85
2023/05/28 06:29:22;;;;;;;0.20;0.20;;;13.40;99.90;;;;;;5052863;28;20684;-87
2023/05/28 06:31:48;;;;;;;0.10;0.10;;;13.50;99.90;;;;;;5055074;28;20509;-86
2023/05/28 06:34:13;;;;;;;0.10;0.10;;;13.60;99.90;;;;;;5076705;28;20224;-87
2023/05/28 06:36:39;;;;;;;0.10;0.10;;;13.70;99.90;;;;;;5059249;28;20193;-88
2023/05/28 06:39:05;;;;;;;0.10;0.10;;;13.80;99.90;;;;;;5070120;28;20186;-86
2023/05/28 06:41:30;;;;;;;0.10;0.10;;;14.00;99.90;;;;;;5056848;28;20973;-86
2023/05/28 06:43:56;;;;;;;0.10;0.10;;;14.00;99.90;;;;;;5055819;28;20182;-86
2023/05/28 06:46:22;;;;;;;0.10;0.10;;;14.20;99.90;;;;;;5069080;28;20192;-86
2023/05/28 06:48:47;;;;;;;0.10;0.10;;;14.30;99.90;;;;;;5076506;28;20216;-88
2023/05/28 06:51:13;;;;;;;0.10;0.10;;;14.30;99.90;;;;;;5070656;28;20221;-82
2023/05/28 06:53:38;;;;;;;0.10;0.10;;;14.30;99.90;;;;;;5073085;28;20269;-81
2023/05/28 06:56:05;;;;;;;0.10;0.10;;;14.50;99.90;;;;;;5069410;28;20200;-82
2023/05/28 06:58:31;;;;;;;0.10;0.10;;;14.60;99.90;;;;;;5071817;28;20532;-82
2023/05/28 07:00:57;;;;;;;0.10;0.10;;;14.60;99.90;;;;;;5073611;28;20961;-82
2023/05/28 07:03:23;;;;;;;0.10;0.10;;;14.80;99.90;;;;;;5070609;28;20209;-83
2023/05/28 07:05:48;;;;;;;0.10;0.10;;;14.90;99.90;;;;;;5072511;28;20502;-83
2023/05/28 07:08:14;;;;;;;0.10;0.10;;;15.00;99.90;;;;;;5068568;28;20271;-83
2023/05/28 07:10:41;;;;;;;0.10;0.10;;;15.00;99.90;;;;;;5068269;28;20228;-83
2023/05/28 07:13:06;;;;;;;0.10;0.10;;;15.00;99.90;;;;;;5068569;28;20189;-83
2023/05/28 07:15:32;;;;;;;0.10;0.10;;;15.30;99.90;;;;;;5075194;28;20493;-84
2023/05/28 07:18:00;;;;;;;0.10;0.10;;;15.40;99.90;;;;;;5066460;28;20283;-88
2023/05/28 07:20:26;;;;;;;0.10;0.10;;;15.50;99.90;;;;;;5070908;28;20181;-86
2023/05/28 07:22:51;;;;;;;0.10;0.10;;;15.70;99.90;;;;;;5071652;28;20436;-88
2023/05/28 07:25:17;;;;;;;0.10;0.10;;;15.80;99.90;;;;;;5050561;28;20190;-87
2023/05/28 07:27:43;;;;;;;0.10;0.10;;;15.80;99.90;;;;;;5070081;28;20542;-89
2023/05/28 07:30:09;;;;;;;0.10;0.10;;;15.80;99.90;;;;;;5060692;28;20248;-88
2023/05/28 07:32:34;;;;;;;0.10;0.10;;;15.90;99.90;;;;;;5068055;28;20652;-88
2023/05/28 07:35:00;;;;;;;0.10;0.10;;;16.00;99.90;;;;;;5066244;28;20452;-89
2023/05/28 07:37:25;;;;;;;0.10;0.10;;;16.10;99.90;;;;;;5070839;28;20181;-90
2023/05/28 07:39:51;;;;;;;0.10;0.10;;;16.20;99.90;;;;;;5068768;28;20185;-89
2023/05/28 07:42:16;;;;;;;0.10;0.10;;;16.20;99.90;;;;;;5082025;28;20290;-88
2023/05/28 07:44:42;;;;;;;0.10;0.10;;;16.40;99.90;;;;;;5080920;28;20189;-87
2023/05/28 07:47:07;;;;;;;0.10;0.10;;;16.40;99.90;;;;;;5065821;28;20197;-88
2023/05/28 07:49:33;;;;;;;0.10;0.10;;;16.40;99.90;;;;;;5051114;28;20182;-88
2023/05/28 07:51:58;;;;;;;0.10;0.10;;;16.50;99.90;;;;;;5056602;28;20224;-86
2023/05/28 07:54:24;;;;;;;0.10;0.10;;;16.50;99.90;;;;;;5069611;28;20732;-89
2023/05/28 07:56:49;;;;;;;0.10;0.10;;;16.70;99.90;;;;;;5067259;28;20190;-87
2023/05/28 07:59:15;;;;;;;0.10;0.10;;;17.10;99.90;;;;;;5070719;28;20237;-89
2023/05/28 08:01:41;;;;;;;0.10;0.10;;;17.30;99.90;;;;;;5048170;28;20552;-89
2023/05/28 08:04:06;;;;;;;0.10;0.10;;;17.30;99.90;;;;;;5071692;28;20569;-89
2023/05/28 08:06:32;;;;;;;0.10;0.10;;;17.30;99.90;;;;;;5052895;28;20560;-89
2023/05/28 08:08:58;;;;;;;0.10;0.10;;;17.30;99.90;;;;;;5052085;28;20188;-89
2023/05/28 08:11:25;;;;;;;0.10;0.10;;;17.20;99.90;;;;;;5070999;28;20221;-89
2023/05/28 08:13:52;;;;;;;0.10;0.10;;;17.40;99.90;;;;;;5061116;28;20453;-89
2023/05/28 08:16:17;;;;;;;0.10;0.10;;;17.60;99.90;;;;;;5072501;28;20448;-88
2023/05/28 08:18:43;;;;;;;0.10;0.10;;;17.60;99.90;;;;;;5050038;28;20182;-89
2023/05/28 08:21:08;;;;;;;0.10;0.10;;;17.90;99.90;;;;;;5067917;28;20190;-88
2023/05/28 08:23:34;;;;;;;0.10;0.10;;;18.00;99.90;;;;;;5049063;28;20285;-89
2023/05/28 08:26:03;;;;;;;0.10;0.10;;;17.80;95.60;;;;;;5046717;28;20328;-89
2023/05/28 08:28:29;;;;;;;0.10;0.10;;;17.40;96.70;;;;;;5068933;28;20436;-88
2023/05/28 08:30:56;;;;;;;0.10;0.10;;;17.90;98.40;;;;;;5073454;28;20474;-90
2023/05/28 08:33:22;;;;;;;0.10;0.10;;;17.90;97.70;;;;;;5072413;28;20452;-89
2023/05/28 08:35:47;;;;;;;0.10;0.10;;;17.80;98.10;;;;;;5047290;28;20480;-89
2023/05/28 08:38:13;;;;;;;0.10;0.10;;;18.30;97.20;;;;;;5046958;28;20472;-90
2023/05/28 08:40:40;;;;;;;0.10;0.10;;;18.50;98.20;;;;;;5061058;28;20595;-89
2023/05/28 08:43:06;;;;;;;0.10;0.10;;;18.30;97.10;;;;;;5072960;28;20233;-88
2023/05/28 08:45:33;;;;;;;0.10;0.10;;;18.60;95.60;;;;;;5064691;28;20447;-89
2023/05/28 08:47:59;;;;;;;0.10;0.10;;;18.80;96.20;;;;;;5068858;28;20435;-92
2023/05/28 08:50:27;;;;;;;0.10;0.10;;;19.00;96.20;;;;;;5067438;28;20479;-91
2023/05/28 08:52:53;;;;;;;0.10;0.10;;;19.30;95.30;;;;;;5068070;28;20484;-90
2023/05/28 08:55:18;;;;;;;0.10;0.10;;;19.20;94.70;;;;;;5065667;28;20867;-90
2023/05/28 08:57:47;;;;;;;0.10;0.10;;;19.10;94.60;;;;;;5066991;28;20257;-91
2023/05/28 09:00:13;;;;;;;0.10;0.10;;;19.00;95.10;;;;;;5064648;28;20174;-91
2023/05/28 09:02:39;;;;;;;0.10;0.10;;;19.60;95.40;;;;;;5069921;28;20456;-89
2023/05/28 09:05:05;;;;;;;0.10;0.10;;;19.90;93.80;;;;;;5067914;28;20895;-90
2023/05/28 09:07:32;;;;;;;0.10;0.00;;;20.00;94.40;;;;;;5070374;28;20181;-90
2023/05/28 09:09:58;;;;;;;0.10;0.00;;;20.20;94.40;;;;;;5070138;28;20554;-89
2023/05/28 09:12:24;;;;;;;0.10;0.00;;;20.00;93.60;;;;;;5070465;28;20997;-90
2023/05/28 09:14:52;;;;;;;0.10;0.10;;;19.70;92.50;;;;;;5054283;28;20444;-89
2023/05/28 09:17:35;;;;;;;0.10;0.00;;;20.10;94.00;;;;;;5048850;28;20451;-90
2023/05/28 09:20:08;;;;;;;0.10;0.00;;;20.50;95.20;;;;;;5060200;28;20467;-90
2023/05/28 09:22:34;;;;;;;0.10;0.10;;;20.70;94.90;;;;;;5046067;28;20443;-89
2023/05/28 09:25:00;;;;;;;0.10;0.00;;;20.70;96.20;;;;;;5068034;28;20436;-89
2023/05/28 09:27:27;;;;;;;0.10;0.00;;;20.80;99.90;;;;;;5076198;28;20443;-89
2023/05/28 09:29:53;;;;;;;0.10;0.00;;;20.90;99.90;;;;;;5062019;28;20572;-91
2023/05/28 09:32:20;;;;;;;0.10;0.00;;;20.50;99.90;;;;;;5065130;28;20488;-90
2023/05/28 09:34:48;;;;;;;0.10;0.00;;;20.60;99.90;;;;;;5065033;28;20602;-88
2023/05/28 09:37:16;;;;;;;0.10;0.00;;;20.40;99.90;;;;;;5070828;28;20534;-89
2023/05/28 09:39:42;;;;;;;0.10;0.00;;;20.80;99.90;;;;;;5065647;28;20447;-89
2023/05/28 09:42:10;;;;;;;0.10;0.00;;;21.10;99.90;;;;;;5071618;28;21124;-92
2023/05/28 09:44:38;;;;;;;0.10;0.07;;;21.00;99.20;;;;;;5068455;28;20193;-87
2023/05/28 09:47:18;;;;;;;0.10;0.10;;;21.20;98.80;;;;;;5056550;28;20506;-93
2023/05/28 09:49:45;;;;;;;0.10;0.00;;;21.20;97.40;;;;;;5052380;28;20438;-92
2023/05/28 09:52:20;;;;;;;0.10;0.00;;;21.10;97.80;;;;;;5056851;28;20477;-92
2023/05/28 09:54:58;;;;;;;0.10;0.10;;;21.00;98.70;;;;;;5069078;28;20435;-90
2023/05/28 09:57:29;;;;;;;0.10;0.00;;;21.30;99.90;;;;;;5056748;28;20450;-92
2023/05/28 09:59:55;;;;;;;0.10;0.00;;;21.60;98.90;;;;;;5083870;28;20710;-92
2023/05/28 10:02:50;;;;;;;0.10;0.00;;;21.20;99.60;;;;;;5055161;28;20440;-92
2023/05/28 10:05:20;;;;;;;0.10;0.00;;;21.50;99.90;;;;;;5075285;28;20530;-95
2023/05/28 10:07:48;;;;;;;0.10;0.00;;;21.70;99.90;;;;;;5092203;28;20429;-91
2023/05/28 10:10:15;;;;;;;0.10;0.00;;;21.90;99.90;;;;;;5074230;28;20498;-92
2023/05/28 10:12:41;;;;;;;0.10;0.00;;;21.70;99.90;;;;;;5070916;28;20455;-92
2023/05/28 10:15:08;;;;;;;0.10;0.00;;;21.50;99.70;;;;;;5054794;28;20580;-92
2023/05/28 10:17:35;;;;;;;0.10;0.00;;;21.70;99.90;;;;;;5066907;28;20449;-94
2023/05/28 10:20:04;;;;;;;0.10;0.00;;;22.10;99.90;;;;;;5068072;28;20931;-95
2023/05/28 10:22:30;;;;;;;0.10;0.00;;;22.10;99.90;;;;;;5071992;28;20444;-93
2023/05/28 10:24:55;;;;;;;0.10;0.00;;;21.80;99.90;;;;;;5060889;28;20768;-94
2023/05/28 10:27:30;;;;;;;0.10;0.00;;;21.20;99.90;;;;;;5071243;28;20603;-90
2023/05/28 10:29:55;;;;;;;0.10;0.00;;;21.20;99.90;;;;;;5044854;28;20183;-90
2023/05/28 10:32:21;;;;;;;0.10;0.00;;;21.60;99.90;;;;;;5047991;28;20483;-90
2023/05/28 10:34:46;;;;;;;0.10;0.00;;;22.00;99.90;;;;;;5065670;28;20187;-86
2023/05/28 10:37:13;;;;;;;0.10;0.00;;;21.80;99.90;;;;;;5053448;28;20182;-86
2023/05/28 10:39:45;;;;;;;0.10;0.00;;;22.20;99.90;;;;;;5075249;28;20217;-87
2023/05/28 10:42:15;;;;;;;0.10;0.00;;;22.70;99.90;;;;;;5071033;28;20424;-87
2023/05/28 10:44:59;;;;;;;0.10;0.00;;;23.40;99.90;;;;;;5068610;28;20451;-86
2023/05/28 10:47:31;;;;;;;0.10;0.00;;;23.10;99.90;;;;;;5073040;28;20681;-86
2023/05/28 10:49:58;;;;;;;0.10;0.00;;;24.00;99.90;;;;;;5082031;28;20443;-84
2023/05/28 10:52:25;;;;;;;0.10;0.00;;;24.50;99.90;;;;;;5045941;28;20586;-84
2023/05/28 10:54:53;;;;;;;0.10;0.00;;;24.20;99.90;;;;;;5051590;28;20483;-87
2023/05/28 10:57:20;;;;;;;0.10;0.00;;;24.30;99.90;;;;;;5086066;28;20470;-87
2023/05/28 10:59:50;;;;;;;0.10;0.00;;;24.30;99.90;;;;;;5086872;28;20522;-88
2023/05/28 11:02:33;;;;;;;0.10;0.00;;;24.90;99.90;;;;;;5059157;28;20444;-88
2023/05/28 11:05:00;;;;;;;0.10;0.00;;;25.30;99.90;;;;;;5078830;28;20434;-86
2023/05/28 11:07:33;;;;;;;0.10;0.00;;;25.90;99.90;;;;;;5067686;28;20440;-85
2023/05/28 11:10:00;;;;;;;0.10;0.00;;;25.80;98.60;;;;;;5062196;28;20440;-85
2023/05/28 11:12:26;;;;;;;0.10;0.00;;;26.10;97.40;;;;;;5068987;28;20585;-86
2023/05/28 11:14:53;;;;;;;0.10;0.00;;;26.10;95.20;;;;;;5080233;28;20443;-84
2023/05/28 11:17:18;;;;;;;0.10;0.00;;;26.10;96.10;;;;;;5068303;28;20440;-86
2023/05/28 11:19:49;;;;;;;0.10;0.00;;;26.20;97.10;;;;;;5068314;28;20446;-83
2023/05/28 11:22:15;;;;;;;0.10;0.00;;;26.10;94.20;;;;;;5068091;28;20272;-85
2023/05/28 11:24:59;;;;;;;0.10;0.00;;;25.80;95.30;;;;;;5072244;28;20440;-85
2023/05/28 11:27:30;;;;;;;0.10;0.00;;;25.80;96.60;;;;;;5049497;28;20448;-85
2023/05/28 11:30:00;;;;;;;0.10;0.00;;;25.90;94.50;;;;;;5065202;28;20431;-85
2023/05/28 11:32:32;;;;;;;0.10;0.00;;;25.80;96.20;;;;;;5063387;28;20900;-84
2023/05/28 11:34:58;;;;;;;0.10;0.00;;;26.40;96.60;;;;;;5076266;28;20436;-84
2023/05/28 11:37:25;;;;;;;0.10;0.00;;;26.20;93.40;;;;;;5081858;28;20937;-84
2023/05/28 11:39:53;;;;;;;0.10;0.00;;;26.30;94.60;;;;;;5054373;28;20186;-85
2023/05/28 11:42:19;;;;;;;0.10;0.00;;;26.20;93.80;;;;;;5070916;28;20930;-84
2023/05/28 11:44:46;;;;;;;0.10;0.00;;;25.10;94.90;;;;;;5082978;28;20989;-84
2023/05/28 11:47:12;;;;;;;0.10;0.00;;;24.20;93.70;;;;;;5069569;28;20452;-85
2023/05/28 11:49:37;;;;;;;0.10;0.00;;;24.30;97.50;;;;;;5069710;28;20497;-84
2023/05/28 11:52:03;;;;;;;0.10;0.00;;;25.30;99.70;;;;;;5069827;28;20483;-85
2023/05/28 11:54:29;;;;;;;0.10;0.00;;;25.20;94.40;;;;;;5083196;28;20220;-85
2023/05/28 11:56:54;;;;;;;0.10;0.00;;;25.80;95.40;;;;;;5069568;28;20200;-86
2023/05/28 11:59:26;;;;;;;0.10;0.00;;;25.70;94.90;;;;;;5079613;28;21052;-85
2023/05/28 12:02:07;;;;;;;0.10;0.00;;;26.40;95.80;;;;;;5075777;28;20637;-85
2023/05/28 12:04:33;;;;;;;0.10;0.00;;;25.00;97.20;;;;;;5073666;28;20844;-87
2023/05/28 12:07:00;;;;;;;0.10;0.00;;;24.30;96.70;;;;;;5069220;28;20501;-88
2023/05/28 12:09:26;;;;;;;0.10;0.00;;;24.10;97.80;;;;;;5073439;28;20243;-88
2023/05/28 12:12:11;;;;;;;0.10;0.00;;;24.90;97.60;;;;;;5081356;28;20496;-91
2023/05/28 12:14:37;;;;;;;0.10;0.00;;;25.30;94.90;;;;;;5069681;28;20221;-87
2023/05/28 12:17:10;;;;;;;0.10;0.00;;;24.50;96.10;;;;;;5075086;28;20537;-87
2023/05/28 12:19:36;;;;;;;0.10;0.00;;;23.50;97.10;;;;;;5071483;28;20264;-88
2023/05/28 12:22:04;;;;;;;0.10;0.00;;;22.50;98.50;;;;;;5073696;28;20448;-87
2023/05/28 12:24:30;;;;;;;0.10;0.00;;;22.10;99.60;;;;;;5068609;28;20444;-87
2023/05/28 12:26:56;;;;;;;0.10;0.00;;;22.10;99.90;;;;;;5068066;28;20447;-88
2023/05/28 12:29:22;;;;;;;0.10;0.00;;;23.10;98.10;;;;;;5072126;28;20189;-89
2023/05/28 12:31:57;;;;;;;0.10;0.00;;;23.00;99.10;;;;;;5057156;28;20472;-89
2023/05/28 12:34:22;;;;;;;0.10;0.00;;;24.10;99.90;;;;;;5062309;28;20227;-89
2023/05/28 12:36:48;;;;;;;0.10;0.00;;;24.20;98.30;;;;;;5075138;28;20436;-86
2023/05/28 12:39:13;;;;;;;0.10;0.00;;;24.10;99.90;;;;;;5052332;28;20177;-87
2023/05/28 12:41:39;;;;;;;0.10;0.00;;;24.40;98.70;;;;;;5056878;28;20609;-87
2023/05/28 12:44:04;;;;;;;0.10;0.10;;;24.80;99.20;;;;;;5075320;28;20181;-89
2023/05/28 12:46:30;;;;;;;0.10;0.00;;;24.10;98.00;;;;;;5074185;28;20201;-89
2023/05/28 12:48:55;;;;;;;0.10;0.00;;;23.30;99.90;;;;;;5056655;28;20205;-84